Time;durP1;ratioP1;P1;durP2;ratioP2;P2;SDS_P1;SDS_P2;PMS_P1;PMS_P2;Temp;Humidity;BMP_temperature;BMP_pressure;BME280_temperature;BME280_humidity;BME280_pressure;Samples;Min_cycle;Max_cycle;Signal;HPM_P1;HPM_P2
2022/07/03 00:02:13;;;;;;;0.98;0.40;;;19.30;66.60;;;;;;4975744;28;20112;-79
2022/07/03 00:04:40;;;;;;;0.60;0.30;;;19.20;66.70;;;;;;4992421;28;20053;-79
2022/07/03 00:07:08;;;;;;;0.90;0.17;;;19.20;66.70;;;;;;4989705;28;20498;-79
2022/07/03 00:09:35;;;;;;;0.85;0.30;;;19.20;66.90;;;;;;5007613;28;20038;-79
2022/07/03 00:12:02;;;;;;;0.80;0.30;;;19.10;67.00;;;;;;4991668;28;20065;-79
2022/07/03 00:14:29;;;;;;;1.27;0.20;;;19.00;67.10;;;;;;4998392;28;20485;-79
2022/07/03 00:16:56;;;;;;;0.57;0.20;;;19.00;68.00;;;;;;4988945;28;20042;-80
2022/07/03 00:19:23;;;;;;;0.55;0.20;;;18.90;67.50;;;;;;4998061;28;20560;-79
2022/07/03 00:21:56;;;;;;;0.38;0.15;;;18.90;67.70;;;;;;5007986;28;20066;-79
2022/07/03 00:24:40;;;;;;;0.80;0.20;;;18.80;67.80;;;;;;4998109;28;20486;-79
2022/07/03 00:27:09;;;;;;;2.50;0.20;;;18.70;68.50;;;;;;4986711;28;20445;-79
2022/07/03 00:29:42;;;;;;;0.85;0.40;;;18.70;68.10;;;;;;4991403;28;20046;-79
2022/07/03 00:32:12;;;;;;;1.67;0.43;;;18.60;68.10;;;;;;4991558;28;20407;-80
2022/07/03 00:34:41;;;;;;;0.40;0.20;;;18.60;68.30;;;;;;5002151;28;20057;-79
2022/07/03 00:37:10;;;;;;;0.55;0.28;;;18.60;68.50;;;;;;4988276;28;20175;-79
2022/07/03 00:39:39;;;;;;;1.17;0.30;;;18.50;68.60;;;;;;4993843;28;20101;-79
2022/07/03 00:42:08;;;;;;;1.10;0.28;;;18.50;69.40;;;;;;4992750;28;20038;-79
2022/07/03 00:44:48;;;;;;;0.60;0.22;;;18.50;68.90;;;;;;4992693;28;20092;-79
2022/07/03 00:47:25;;;;;;;0.82;0.30;;;18.40;68.90;;;;;;4991341;28;20041;-79
2022/07/03 00:49:57;;;;;;;0.65;0.30;;;18.40;69.20;;;;;;5011326;28;20057;-79
2022/07/03 00:52:24;;;;;;;0.90;0.22;;;18.30;69.30;;;;;;4979352;28;20069;-79
2022/07/03 00:54:59;;;;;;;0.82;0.30;;;18.20;69.40;;;;;;5000346;28;20039;-79
2022/07/03 00:57:29;;;;;;;1.60;0.43;;;18.20;69.50;;;;;;4991690;28;20038;-79
2022/07/03 00:59:57;;;;;;;0.70;0.22;;;18.10;69.60;;;;;;5010397;28;20080;-79
2022/07/03 01:02:37;;;;;;;0.73;0.38;;;18.10;69.70;;;;;;4990499;28;20050;-79
2022/07/03 01:05:33;;;;;;;0.70;0.22;;;18.00;69.80;;;;;;5005342;28;20046;-79
2022/07/03 01:08:24;;;;;;;1.27;0.20;;;18.00;69.90;;;;;;4991543;28;20073;-79
2022/07/03 01:11:17;;;;;;;0.85;0.30;;;17.90;70.10;;;;;;5008558;28;20105;-79
2022/07/03 01:13:44;;;;;;;0.77;0.30;;;17.80;70.30;;;;;;4993791;28;20569;-79
2022/07/03 01:16:40;;;;;;;0.65;0.30;;;17.80;70.50;;;;;;4979039;28;20112;-78
2022/07/03 01:19:26;;;;;;;0.93;0.30;;;17.80;70.60;;;;;;4993637;28;20109;-78
2022/07/03 01:21:52;;;;;;;0.70;0.38;;;17.70;70.60;;;;;;4995138;28;20405;-79
2022/07/03 01:24:51;;;;;;;0.38;0.10;;;17.70;70.70;;;;;;5004640;28;20487;-78
2022/07/03 01:27:40;;;;;;;0.32;0.20;;;17.60;70.80;;;;;;5002367;28;20134;-76
2022/07/03 01:30:11;;;;;;;0.20;0.10;;;17.60;71.10;;;;;;4996174;28;20042;-76
2022/07/03 01:32:45;;;;;;;1.23;0.30;;;17.60;71.20;;;;;;4993177;28;20050;-76
2022/07/03 01:35:17;;;;;;;1.00;0.20;;;17.50;71.20;;;;;;4977164;28;20790;-75
2022/07/03 01:37:46;;;;;;;1.15;0.50;;;17.50;71.30;;;;;;4997319;28;20062;-76
2022/07/03 01:40:16;;;;;;;0.80;0.30;;;17.40;71.30;;;;;;4996696;28;20133;-75
2022/07/03 01:42:45;;;;;;;1.33;0.40;;;17.40;71.40;;;;;;5002834;28;20444;-76
2022/07/03 01:45:14;;;;;;;0.88;0.40;;;17.30;71.60;;;;;;5001423;28;20434;-76
2022/07/03 01:47:45;;;;;;;2.58;0.47;;;17.30;71.80;;;;;;4994262;28;20042;-76
2022/07/03 01:50:14;;;;;;;1.15;0.47;;;17.30;71.80;;;;;;5009396;28;20065;-75
2022/07/03 01:52:44;;;;;;;1.40;0.40;;;17.30;71.60;;;;;;4992955;28;20410;-75
2022/07/03 01:55:14;;;;;;;0.98;0.50;;;17.40;71.40;;;;;;4992774;28;20177;-75
2022/07/03 01:57:49;;;;;;;2.58;0.50;;;17.40;71.40;;;;;;4993576;28;20043;-76
2022/07/03 02:00:21;;;;;;;1.80;0.70;;;17.40;71.40;;;;;;5008338;28;20066;-76
2022/07/03 02:03:04;;;;;;;2.13;0.65;;;17.40;71.10;;;;;;4997018;28;20047;-76
2022/07/03 02:05:43;;;;;;;1.90;0.60;;;17.50;71.10;;;;;;4987702;28;20046;-76
2022/07/03 02:08:22;;;;;;;1.10;0.50;;;17.50;71.00;;;;;;5014000;28;20573;-75
2022/07/03 02:11:10;;;;;;;1.10;0.40;;;17.60;71.00;;;;;;4992838;28;20100;-76
2022/07/03 02:13:50;;;;;;;0.93;0.40;;;17.60;70.90;;;;;;4939970;28;1160490;-76
2022/07/03 02:16:23;;;;;;;1.58;0.60;;;17.60;70.80;;;;;;5004223;28;20104;-76
2022/07/03 02:18:58;;;;;;;1.95;0.70;;;17.60;70.80;;;;;;4974543;28;20117;-76
2022/07/03 02:21:28;;;;;;;1.27;0.60;;;17.70;70.90;;;;;;4989265;28;20041;-76
2022/07/03 02:24:10;;;;;;;1.75;0.77;;;17.70;70.90;;;;;;5002799;28;20042;-76
2022/07/03 02:26:41;;;;;;;1.83;0.80;;;17.70;70.90;;;;;;4993886;28;20053;-76
2022/07/03 02:29:24;;;;;;;1.58;0.70;;;17.70;70.90;;;;;;5011839;28;20119;-76
2022/07/03 02:31:59;;;;;;;1.40;0.57;;;17.70;71.00;;;;;;5005781;28;20096;-76
2022/07/03 02:34:30;;;;;;;1.48;0.60;;;17.70;71.20;;;;;;4999450;28;20038;-76
2022/07/03 02:37:05;;;;;;;1.20;0.50;;;17.60;71.20;;;;;;4992919;28;20589;-76
2022/07/03 02:39:43;;;;;;;1.02;0.57;;;17.60;71.30;;;;;;4999296;28;20046;-76
2022/07/03 02:42:52;;;;;;;2.55;0.65;;;17.60;71.40;;;;;;4977206;28;20054;-75
2022/07/03 02:45:22;;;;;;;1.25;0.68;;;17.60;71.40;;;;;;5004980;28;20047;-76
2022/07/03 02:48:02;;;;;;;3.65;0.63;;;17.60;71.50;;;;;;4996525;28;20766;-76
2022/07/03 02:50:33;;;;;;;2.65;0.80;;;17.60;71.50;;;;;;4979151;28;20043;-75
2022/07/03 02:53:24;;;;;;;2.42;0.70;;;17.50;71.50;;;;;;4992873;28;20053;-76
2022/07/03 02:56:29;;;;;;;2.22;0.60;;;17.60;71.60;;;;;;4996031;28;20462;-76
2022/07/03 02:59:22;;;;;;;1.20;0.68;;;17.60;71.70;;;;;;4937281;29;20087;-76
2022/07/03 03:02:03;;;;;;;1.33;0.60;;;17.50;71.60;;;;;;4982069;28;20093;-76
2022/07/03 03:04:32;;;;;;;1.10;0.60;;;17.50;71.80;;;;;;4998796;28;20073;-76
2022/07/03 03:07:09;;;;;;;1.85;0.82;;;17.40;71.90;;;;;;4995652;28;20564;-75
2022/07/03 03:09:45;;;;;;;1.70;0.70;;;17.40;72.00;;;;;;4995663;28;20046;-79
2022/07/03 03:12:13;;;;;;;1.15;0.52;;;17.40;72.10;;;;;;5007609;28;20100;-79
2022/07/03 03:14:47;;;;;;;1.00;0.38;;;17.30;72.10;;;;;;5002527;28;20486;-80
2022/07/03 03:17:23;;;;;;;1.77;0.50;;;17.30;72.20;;;;;;5010447;28;20096;-82
2022/07/03 03:19:57;;;;;;;0.98;0.50;;;17.30;72.20;;;;;;5000431;28;20045;-81
2022/07/03 03:22:54;;;;;;;1.98;0.60;;;17.30;72.20;;;;;;4992820;28;20043;-81
2022/07/03 03:25:21;;;;;;;1.27;0.50;;;17.30;72.30;;;;;;4992717;28;20039;-81
2022/07/03 03:27:48;;;;;;;2.70;0.50;;;17.20;72.40;;;;;;5009126;28;20455;-81
2022/07/03 03:30:15;;;;;;;1.15;0.50;;;17.20;72.50;;;;;;5008763;28;20131;-81
2022/07/03 03:32:42;;;;;;;1.38;0.50;;;17.10;72.50;;;;;;4992805;28;20062;-81
2022/07/03 03:35:12;;;;;;;0.80;0.50;;;17.10;72.60;;;;;;4981365;28;20065;-81
2022/07/03 03:37:39;;;;;;;0.90;0.40;;;17.10;72.70;;;;;;4979198;28;20065;-81
2022/07/03 03:40:10;;;;;;;2.15;0.60;;;17.10;73.50;;;;;;4992672;28;20042;-81
2022/07/03 03:42:37;;;;;;;1.17;0.47;;;17.10;72.90;;;;;;4997550;28;20042;-78
2022/07/03 03:45:06;;;;;;;1.00;0.47;;;17.00;72.90;;;;;;4995323;28;20123;-78
2022/07/03 03:47:34;;;;;;;1.58;0.40;;;17.00;72.90;;;;;;4994069;28;20045;-78
2022/07/03 03:50:02;;;;;;;1.48;0.60;;;16.90;72.90;;;;;;4979875;28;20067;-81
2022/07/03 03:52:30;;;;;;;2.60;0.30;;;17.00;73.10;;;;;;4992934;28;20054;-81
2022/07/03 03:54:57;;;;;;;0.70;0.30;;;17.00;73.20;;;;;;4975854;28;20499;-79
2022/07/03 03:57:25;;;;;;;0.95;0.50;;;17.00;73.20;;;;;;4991808;28;20050;-79
2022/07/03 03:59:52;;;;;;;1.90;0.40;;;17.00;73.20;;;;;;4975743;28;20038;-79
2022/07/03 04:02:19;;;;;;;1.02;0.30;;;17.00;73.20;;;;;;4991988;28;20659;-79
2022/07/03 04:04:46;;;;;;;0.63;0.30;;;17.10;73.20;;;;;;4991853;28;20108;-76
2022/07/03 04:07:13;;;;;;;1.00;0.40;;;17.10;73.20;;;;;;4985044;28;20062;-76
2022/07/03 04:09:40;;;;;;;2.15;0.40;;;17.10;73.10;;;;;;4986822;28;20133;-76
2022/07/03 04:12:08;;;;;;;0.98;0.40;;;17.20;73.10;;;;;;4981911;28;20056;-76
2022/07/03 04:14:35;;;;;;;1.20;0.40;;;17.20;73.00;;;;;;5008225;28;20062;-75
2022/07/03 04:17:06;;;;;;;0.60;0.30;;;17.30;72.80;;;;;;5001816;28;20093;-76
2022/07/03 04:19:33;;;;;;;0.38;0.28;;;17.30;72.70;;;;;;4996020;28;20105;-76
2022/07/03 04:22:00;;;;;;;0.95;0.30;;;17.40;73.30;;;;;;4987172;28;20084;-76
2022/07/03 04:24:27;;;;;;;0.88;0.30;;;17.40;72.90;;;;;;4959416;28;20461;-75
2022/07/03 04:26:54;;;;;;;1.17;0.30;;;17.40;73.00;;;;;;4975335;28;20045;-76
2022/07/03 04:29:21;;;;;;;1.05;0.32;;;17.30;73.20;;;;;;4988144;28;20053;-76
2022/07/03 04:31:49;;;;;;;0.52;0.30;;;17.30;73.30;;;;;;4984350;28;20149;-75
2022/07/03 04:34:16;;;;;;;0.60;0.32;;;17.30;73.50;;;;;;4999016;28;20050;-76
2022/07/03 04:36:43;;;;;;;1.42;0.40;;;17.30;73.70;;;;;;4996369;28;20080;-75
2022/07/03 04:39:10;;;;;;;1.17;0.30;;;17.30;73.80;;;;;;4981082;28;20414;-76
2022/07/03 04:41:37;;;;;;;1.02;0.30;;;17.20;73.80;;;;;;4985517;28;20057;-76
2022/07/03 04:44:04;;;;;;;0.75;0.35;;;17.20;73.90;;;;;;4991579;28;20153;-76
2022/07/03 04:46:31;;;;;;;0.73;0.35;;;17.10;73.90;;;;;;4995628;28;20043;-76
2022/07/03 04:48:58;;;;;;;1.55;0.40;;;17.10;74.10;;;;;;4998033;28;20466;-75
2022/07/03 04:51:25;;;;;;;0.40;0.30;;;17.10;74.20;;;;;;4991182;28;20549;-76
2022/07/03 04:53:52;;;;;;;0.63;0.40;;;17.10;74.30;;;;;;5012938;28;20509;-75
2022/07/03 04:56:19;;;;;;;1.42;0.43;;;17.10;74.40;;;;;;5008039;28;20487;-75
2022/07/03 04:58:46;;;;;;;0.93;0.40;;;17.10;74.50;;;;;;4991350;28;20043;-78
2022/07/03 05:01:13;;;;;;;0.68;0.30;;;17.20;74.50;;;;;;5008485;28;20042;-78
2022/07/03 05:03:40;;;;;;;1.10;0.50;;;17.20;74.40;;;;;;4991458;28;20046;-78
2022/07/03 05:06:07;;;;;;;1.60;0.57;;;17.30;74.40;;;;;;4991164;28;20117;-78
2022/07/03 05:08:34;;;;;;;1.05;0.40;;;17.40;74.30;;;;;;4992945;28;20117;-78
2022/07/03 05:11:01;;;;;;;1.05;0.30;;;17.50;74.20;;;;;;4992731;28;20070;-76
2022/07/03 05:13:28;;;;;;;3.38;0.38;;;17.70;74.00;;;;;;4990620;28;20061;-76
2022/07/03 05:15:55;;;;;;;2.22;0.50;;;17.90;73.60;;;;;;4991047;28;20042;-76
2022/07/03 05:18:22;;;;;;;1.75;0.75;;;18.10;73.10;;;;;;5007084;28;20467;-76
2022/07/03 05:20:49;;;;;;;1.75;0.70;;;18.30;72.60;;;;;;4996346;28;20096;-76
2022/07/03 05:23:16;;;;;;;2.58;0.80;;;18.40;72.20;;;;;;4990540;28;20121;-76
2022/07/03 05:25:43;;;;;;;2.25;0.70;;;18.60;71.90;;;;;;4986394;28;20141;-76
2022/07/03 05:28:10;;;;;;;1.05;0.50;;;18.60;71.70;;;;;;4992425;28;20070;-76
2022/07/03 05:30:37;;;;;;;1.65;0.60;;;18.70;71.50;;;;;;4993510;28;20043;-76
2022/07/03 05:33:04;;;;;;;1.60;0.60;;;18.70;71.30;;;;;;4976412;28;20121;-76
2022/07/03 05:35:31;;;;;;;2.08;0.70;;;18.70;71.30;;;;;;4990721;28;20042;-76
2022/07/03 05:37:58;;;;;;;2.38;0.55;;;18.80;71.20;;;;;;5017451;28;20046;-75
2022/07/03 05:40:25;;;;;;;1.55;0.50;;;18.90;71.00;;;;;;5010347;28;20435;-76
2022/07/03 05:42:53;;;;;;;1.58;0.68;;;19.10;70.80;;;;;;4995706;28;20046;-76
2022/07/03 05:45:20;;;;;;;1.17;0.35;;;19.10;70.50;;;;;;4990912;28;20038;-76
2022/07/03 05:47:47;;;;;;;1.15;0.50;;;19.10;70.50;;;;;;5007111;28;20069;-76
2022/07/03 05:50:14;;;;;;;2.30;0.57;;;19.00;70.60;;;;;;5010373;28;20042;-76
2022/07/03 05:52:44;;;;;;;2.15;0.70;;;18.90;70.80;;;;;;5003553;28;20116;-75
2022/07/03 05:55:11;;;;;;;1.58;0.50;;;18.90;71.00;;;;;;4994524;28;20046;-78
2022/07/03 05:57:38;;;;;;;2.10;0.50;;;18.80;71.20;;;;;;4987780;28;20054;-78
2022/07/03 06:00:06;;;;;;;1.90;0.70;;;18.70;71.40;;;;;;4994137;28;20038;-78
2022/07/03 06:02:32;;;;;;;1.27;0.60;;;18.70;71.50;;;;;;5029584;28;20061;-78
2022/07/03 06:04:59;;;;;;;2.58;0.80;;;18.80;71.40;;;;;;4979205;28;20552;-78
2022/07/03 06:07:26;;;;;;;2.97;1.15;;;18.90;71.30;;;;;;4978034;28;20108;-78
2022/07/03 06:09:53;;;;;;;2.97;0.80;;;19.00;71.10;;;;;;5004430;28;20077;-78
2022/07/03 06:12:20;;;;;;;1.40;0.70;;;19.10;71.00;;;;;;4998454;28;20453;-78
2022/07/03 06:14:47;;;;;;;1.63;0.88;;;19.20;70.80;;;;;;5008096;28;20509;-78
2022/07/03 06:17:14;;;;;;;1.20;0.50;;;19.40;70.60;;;;;;5013746;28;20053;-78
2022/07/03 06:19:44;;;;;;;1.55;0.60;;;19.50;70.40;;;;;;4978334;28;20042;-76
2022/07/03 06:22:12;;;;;;;0.93;0.50;;;19.60;70.10;;;;;;4980513;28;20038;-76
2022/07/03 06:24:39;;;;;;;2.70;0.73;;;19.80;69.90;;;;;;5014897;28;20534;-76
2022/07/03 06:27:06;;;;;;;1.27;0.63;;;19.90;69.70;;;;;;4984011;28;20042;-76
2022/07/03 06:29:33;;;;;;;1.63;0.50;;;19.90;69.50;;;;;;5009629;28;20046;-78
2022/07/03 06:32:00;;;;;;;1.75;0.60;;;19.90;69.50;;;;;;5009570;28;20133;-78
2022/07/03 06:34:27;;;;;;;1.25;0.40;;;19.80;69.60;;;;;;5009717;28;20141;-78
2022/07/03 06:36:54;;;;;;;1.67;0.40;;;19.90;69.70;;;;;;5003014;28;20108;-81
2022/07/03 06:39:21;;;;;;;1.92;0.50;;;19.90;69.60;;;;;;5000093;28;20042;-81
2022/07/03 06:41:48;;;;;;;2.47;0.52;;;20.00;69.50;;;;;;4977397;28;20042;-80
2022/07/03 06:44:15;;;;;;;1.00;0.40;;;20.10;70.10;;;;;;4977207;28;20042;-79
2022/07/03 06:46:42;;;;;;;2.00;0.50;;;20.10;69.30;;;;;;4967261;28;20100;-79
2022/07/03 06:49:09;;;;;;;1.42;0.35;;;20.10;69.30;;;;;;4989203;28;20121;-79
2022/07/03 06:51:36;;;;;;;0.82;0.30;;;20.20;69.30;;;;;;4990061;28;20068;-79
2022/07/03 06:54:03;;;;;;;1.42;0.60;;;20.30;69.20;;;;;;4998436;28;20082;-79
2022/07/03 06:56:30;;;;;;;0.73;0.30;;;20.30;69.10;;;;;;4982604;28;20133;-79
2022/07/03 06:58:57;;;;;;;2.63;0.30;;;20.30;69.20;;;;;;4993888;28;20077;-79
2022/07/03 07:01:24;;;;;;;1.70;0.40;;;20.30;69.00;;;;;;4976964;28;20446;-79
2022/07/03 07:03:54;;;;;;;2.08;0.40;;;20.30;68.90;;;;;;4993171;28;20458;-80
2022/07/03 07:06:22;;;;;;;0.65;0.30;;;20.40;68.80;;;;;;4992651;28;20047;-79
2022/07/03 07:08:50;;;;;;;0.65;0.30;;;20.50;68.60;;;;;;4994228;28;20057;-80
2022/07/03 07:11:17;;;;;;;1.20;0.17;;;20.60;68.50;;;;;;4992742;28;20077;-79
2022/07/03 07:13:46;;;;;;;2.47;0.25;;;20.70;68.30;;;;;;4993268;28;20058;-80
2022/07/03 07:16:13;;;;;;;0.93;0.30;;;20.80;68.80;;;;;;4994134;28;20401;-80
2022/07/03 07:18:41;;;;;;;0.80;0.20;;;20.80;68.00;;;;;;4974510;28;20039;-81
2022/07/03 07:21:09;;;;;;;1.25;0.10;;;21.00;67.90;;;;;;4993934;28;20549;-80
2022/07/03 07:23:36;;;;;;;1.33;0.35;;;21.10;67.70;;;;;;4981858;28;20054;-80
2022/07/03 07:26:04;;;;;;;1.38;0.28;;;21.20;67.50;;;;;;4960931;28;20035;-80
2022/07/03 07:28:33;;;;;;;0.88;0.32;;;21.30;67.30;;;;;;5008842;28;20478;-80
2022/07/03 07:31:00;;;;;;;0.80;0.20;;;21.40;67.10;;;;;;5001368;28;20538;-80
2022/07/03 07:33:27;;;;;;;1.38;0.30;;;21.40;67.00;;;;;;4976656;28;20096;-80
2022/07/03 07:35:54;;;;;;;2.53;0.40;;;21.50;66.80;;;;;;4976433;28;20141;-80
2022/07/03 07:38:21;;;;;;;2.03;0.38;;;21.50;66.60;;;;;;5008991;28;20054;-80
2022/07/03 07:40:48;;;;;;;1.65;0.32;;;21.50;66.30;;;;;;4992634;28;20050;-82
2022/07/03 07:43:15;;;;;;;2.50;0.30;;;21.40;66.20;;;;;;5000679;28;20038;-82
2022/07/03 07:45:43;;;;;;;2.35;0.32;;;21.50;66.30;;;;;;4994257;28;20038;-80
2022/07/03 07:48:10;;;;;;;1.73;0.40;;;21.60;66.10;;;;;;4992534;28;20050;-80
2022/07/03 07:50:37;;;;;;;0.70;0.28;;;21.70;65.90;;;;;;4992292;28;20050;-81
2022/07/03 07:53:04;;;;;;;1.60;0.50;;;21.80;65.80;;;;;;4992409;28;20058;-80
2022/07/03 07:55:31;;;;;;;2.00;0.40;;;21.80;65.40;;;;;;4991929;28;20066;-79
2022/07/03 07:57:58;;;;;;;1.05;0.30;;;21.80;65.40;;;;;;4979482;28;20112;-80
2022/07/03 08:00:25;;;;;;;0.52;0.20;;;21.90;65.20;;;;;;4991889;28;20034;-81
2022/07/03 08:05:38;;;;;;;1.23;0.13;;;22.20;64.70;;;;;;4993379;28;20413;-81
2022/07/03 08:08:11;;;;;;;0.82;0.22;;;22.20;64.50;;;;;;4974744;28;20065;-81
2022/07/03 08:10:42;;;;;;;1.50;0.10;;;22.30;64.30;;;;;;4992067;28;20577;-81
2022/07/03 08:13:11;;;;;;;2.55;0.57;;;22.30;63.60;;;;;;4992648;28;20133;-81
2022/07/03 08:15:38;;;;;;;2.38;0.30;;;22.30;63.60;;;;;;4997800;28;20395;-80
2022/07/03 08:18:05;;;;;;;0.40;0.20;;;22.40;63.40;;;;;;5006400;28;20446;-81
2022/07/03 08:20:34;;;;;;;1.17;0.28;;;22.50;63.30;;;;;;4991638;28;20105;-80
2022/07/03 08:23:01;;;;;;;0.57;0.20;;;22.50;63.30;;;;;;4977355;28;20462;-86
2022/07/03 08:25:29;;;;;;;2.72;0.20;;;22.50;63.10;;;;;;5008134;28;20406;-78
2022/07/03 08:27:57;;;;;;;1.15;0.30;;;22.50;62.90;;;;;;4991658;28;20403;-84
2022/07/03 08:30:25;;;;;;;1.63;0.40;;;22.50;62.90;;;;;;4959683;28;20097;-82
2022/07/03 08:32:55;;;;;;;3.53;0.35;;;22.50;62.80;;;;;;4996510;28;20495;-82
2022/07/03 08:35:22;;;;;;;1.85;0.30;;;22.50;62.50;;;;;;4991642;28;20057;-78
2022/07/03 08:37:50;;;;;;;2.63;0.52;;;22.60;62.10;;;;;;4988514;28;20154;-79
2022/07/03 08:40:20;;;;;;;0.88;0.35;;;22.60;62.00;;;;;;4984862;28;20094;-79
2022/07/03 08:42:49;;;;;;;2.58;0.20;;;22.60;62.20;;;;;;4992563;28;20042;-79
2022/07/03 08:45:18;;;;;;;0.95;0.30;;;22.80;62.20;;;;;;4992460;28;20852;-78
2022/07/03 08:47:47;;;;;;;1.63;0.30;;;22.90;61.80;;;;;;4999694;28;20513;-79
2022/07/03 08:50:17;;;;;;;0.73;0.20;;;22.90;61.30;;;;;;4992659;28;20038;-79
2022/07/03 08:52:46;;;;;;;0.70;0.15;;;23.00;61.30;;;;;;4992382;28;20042;-76
2022/07/03 08:55:15;;;;;;;0.75;0.20;;;23.00;61.30;;;;;;4992943;28;20066;-75
2022/07/03 08:57:43;;;;;;;1.70;0.30;;;23.20;61.20;;;;;;4986474;28;20562;-75
2022/07/03 09:00:13;;;;;;;0.88;0.38;;;23.30;61.00;;;;;;4994271;28;20093;-75
2022/07/03 09:02:45;;;;;;;2.45;0.30;;;23.40;60.30;;;;;;4990423;28;20402;-75
2022/07/03 09:05:13;;;;;;;0.98;0.22;;;23.40;59.90;;;;;;4998270;28;20472;-75
2022/07/03 09:07:45;;;;;;;1.67;0.30;;;23.40;59.70;;;;;;4989729;28;20066;-75
2022/07/03 09:10:14;;;;;;;2.20;0.30;;;23.50;59.20;;;;;;5011778;28;20050;-73
2022/07/03 09:12:44;;;;;;;0.30;0.10;;;23.50;58.90;;;;;;4995345;28;20453;-74
2022/07/03 09:15:11;;;;;;;0.75;0.15;;;23.60;58.30;;;;;;5007006;28;20045;-73
2022/07/03 09:17:38;;;;;;;1.00;0.20;;;23.60;58.00;;;;;;5006537;28;20544;-76
2022/07/03 09:20:07;;;;;;;0.45;0.20;;;23.60;57.60;;;;;;4994162;28;20066;-75
2022/07/03 09:22:37;;;;;;;0.95;0.25;;;23.70;57.40;;;;;;4990625;28;20445;-76
2022/07/03 09:25:09;;;;;;;0.85;0.32;;;23.70;57.30;;;;;;4983127;28;20063;-76
2022/07/03 09:27:38;;;;;;;1.15;0.30;;;23.70;57.00;;;;;;4995443;28;20077;-75
2022/07/03 09:30:07;;;;;;;0.88;0.20;;;23.80;57.00;;;;;;4996788;28;20062;-75
2022/07/03 09:32:38;;;;;;;0.68;0.22;;;23.80;56.30;;;;;;5001317;28;20457;-76
2022/07/03 09:35:21;;;;;;;2.08;0.40;;;23.80;56.10;;;;;;5008108;28;20124;-75
2022/07/03 09:38:01;;;;;;;1.92;0.30;;;23.90;56.30;;;;;;4997313;28;20584;-75
2022/07/03 09:40:52;;;;;;;1.10;0.20;;;23.90;55.90;;;;;;4998129;28;20049;-75
2022/07/03 09:43:27;;;;;;;1.30;0.20;;;24.00;56.20;;;;;;5005884;28;20088;-75
2022/07/03 09:45:56;;;;;;;1.48;0.20;;;24.00;56.20;;;;;;4989867;28;20038;-76
2022/07/03 09:48:23;;;;;;;1.15;0.28;;;24.10;56.30;;;;;;5010287;28;20057;-76
2022/07/03 09:51:28;;;;;;;1.05;0.50;;;24.10;56.40;;;;;;4994836;28;20045;-76
2022/07/03 09:53:56;;;;;;;0.22;0.20;;;24.30;56.40;;;;;;5006821;28;20050;-75
2022/07/03 09:56:33;;;;;;;1.30;0.30;;;24.40;56.40;;;;;;5001116;28;20129;-75
2022/07/03 09:59:09;;;;;;;2.35;0.20;;;24.70;56.40;;;;;;4996485;28;20114;-75
2022/07/03 10:01:46;;;;;;;0.88;0.20;;;24.90;56.10;;;;;;4993831;28;20038;-75
2022/07/03 10:04:22;;;;;;;0.35;0.20;;;24.80;56.70;;;;;;5005216;28;20046;-75
2022/07/03 10:06:58;;;;;;;0.50;0.30;;;24.70;56.30;;;;;;5009554;28;20054;-75
2022/07/03 10:09:30;;;;;;;0.95;0.10;;;24.50;56.60;;;;;;4997781;28;20092;-78
2022/07/03 10:12:00;;;;;;;3.03;0.40;;;24.60;56.90;;;;;;4993835;28;20116;-77
2022/07/03 10:14:29;;;;;;;1.55;0.40;;;24.60;56.50;;;;;;4993557;28;20456;-77
2022/07/03 10:16:59;;;;;;;0.95;0.30;;;24.60;56.60;;;;;;5002268;28;20120;-74
2022/07/03 10:19:28;;;;;;;0.85;0.30;;;24.60;56.80;;;;;;5007603;28;20457;-74
2022/07/03 10:22:08;;;;;;;0.50;0.20;;;24.70;56.50;;;;;;4999463;28;20430;-74
2022/07/03 10:24:36;;;;;;;0.60;0.25;;;24.70;56.00;;;;;;4992157;28;20089;-75
2022/07/03 10:27:03;;;;;;;1.02;0.30;;;24.60;56.30;;;;;;4989353;28;20060;-74
2022/07/03 10:29:30;;;;;;;1.00;0.13;;;24.70;56.00;;;;;;5004983;28;20128;-75
2022/07/03 10:31:57;;;;;;;1.15;0.28;;;24.80;55.80;;;;;;4996851;28;20042;-74
2022/07/03 10:34:26;;;;;;;0.85;0.30;;;24.80;55.80;;;;;;5002862;28;20092;-74
2022/07/03 10:37:02;;;;;;;1.20;0.28;;;24.80;55.60;;;;;;5002276;28;20099;-76
2022/07/03 10:39:55;;;;;;;0.63;0.10;;;24.90;55.60;;;;;;5018235;28;20117;-75
2022/07/03 10:45:19;;;;;;;1.10;0.20;;;25.20;55.10;;;;;;4994022;28;20081;-75
2022/07/03 10:47:50;;;;;;;0.73;0.30;;;25.30;54.80;;;;;;4998040;28;20457;-75
2022/07/03 10:50:20;;;;;;;0.57;0.20;;;25.50;54.60;;;;;;4999728;28;20116;-75
2022/07/03 10:52:47;;;;;;;0.73;0.20;;;25.60;54.30;;;;;;4995203;28;20145;-75
2022/07/03 10:55:15;;;;;;;0.80;0.20;;;25.70;54.30;;;;;;5016385;28;20497;-75
2022/07/03 10:58:02;;;;;;;0.80;0.10;;;25.90;54.10;;;;;;4998630;28;20035;-76
2022/07/03 11:00:29;;;;;;;0.28;0.10;;;26.10;54.10;;;;;;5011323;28;20054;-81
2022/07/03 11:02:56;;;;;;;0.55;0.13;;;26.20;53.80;;;;;;4993601;28;20121;-74
2022/07/03 11:05:26;;;;;;;0.40;0.20;;;26.10;53.70;;;;;;5013729;28;20081;-78
2022/07/03 11:07:53;;;;;;;1.90;0.17;;;26.20;53.70;;;;;;4984058;28;20054;-75
2022/07/03 11:10:20;;;;;;;0.68;0.10;;;26.40;53.80;;;;;;5005532;28;20485;-73
2022/07/03 11:12:56;;;;;;;0.90;0.10;;;26.30;53.50;;;;;;4996622;28;20108;-73
2022/07/03 11:15:33;;;;;;;0.32;0.10;;;26.00;53.60;;;;;;5001358;28;20042;-74
2022/07/03 11:18:09;;;;;;;0.50;0.10;;;26.00;54.00;;;;;;5004899;28;20535;-73
2022/07/03 11:20:42;;;;;;;0.90;0.30;;;26.00;53.80;;;;;;5001775;28;20112;-74
2022/07/03 11:23:29;;;;;;;1.58;0.28;;;25.90;53.30;;;;;;4996756;28;20427;-74
2022/07/03 11:25:58;;;;;;;0.20;0.10;;;26.00;53.60;;;;;;4989296;28;20097;-75
2022/07/03 11:28:32;;;;;;;1.33;0.28;;;26.10;53.10;;;;;;4990202;28;20458;-74
2022/07/03 11:31:13;;;;;;;1.52;0.57;;;26.10;52.30;;;;;;5002251;28;20132;-74
2022/07/03 11:34:07;;;;;;;1.35;0.20;;;26.10;52.10;;;;;;4995035;28;20446;-74
2022/07/03 11:36:40;;;;;;;0.70;0.35;;;25.90;51.90;;;;;;4994855;28;20058;-73
2022/07/03 11:39:12;;;;;;;0.60;0.10;;;25.80;52.20;;;;;;4987047;28;20405;-74
2022/07/03 11:41:39;;;;;;;2.13;0.20;;;25.90;52.00;;;;;;4989452;28;20042;-76
2022/07/03 11:44:07;;;;;;;0.43;0.10;;;25.70;51.60;;;;;;4999592;28;20072;-74
2022/07/03 11:46:36;;;;;;;0.55;0.20;;;25.60;52.80;;;;;;4995516;28;20101;-74
2022/07/03 11:49:13;;;;;;;1.15;0.30;;;25.70;52.00;;;;;;5014703;28;20050;-74
2022/07/03 11:52:04;;;;;;;0.65;0.40;;;25.80;51.90;;;;;;4999789;28;20050;-74
2022/07/03 11:54:48;;;;;;;1.17;0.30;;;25.90;51.70;;;;;;5002564;28;20558;-75
2022/07/03 11:57:15;;;;;;;0.55;0.20;;;26.00;51.60;;;;;;5003356;28;20140;-74
2022/07/03 11:59:42;;;;;;;0.30;0.17;;;26.20;51.10;;;;;;5010761;28;20124;-74
2022/07/03 12:02:09;;;;;;;0.90;0.40;;;26.30;50.60;;;;;;5006072;28;20074;-75
2022/07/03 12:04:38;;;;;;;0.50;0.20;;;26.50;49.70;;;;;;4997926;28;20449;-72
2022/07/03 12:07:06;;;;;;;1.20;0.30;;;26.70;49.40;;;;;;4996564;28;20406;-74
2022/07/03 12:09:35;;;;;;;2.08;0.30;;;26.80;48.90;;;;;;5002358;28;20136;-73
2022/07/03 12:12:03;;;;;;;1.27;0.20;;;27.10;48.70;;;;;;5006297;28;20044;-73
2022/07/03 12:14:50;;;;;;;0.50;0.20;;;27.40;48.10;;;;;;4994987;28;20137;-74
2022/07/03 12:17:24;;;;;;;0.40;0.20;;;27.70;47.70;;;;;;4994169;28;20456;-74
2022/07/03 12:19:55;;;;;;;0.88;0.20;;;28.10;47.50;;;;;;4992670;28;20140;-76
2022/07/03 12:22:23;;;;;;;0.70;0.20;;;28.40;47.00;;;;;;4992745;28;20041;-75
2022/07/03 12:25:12;;;;;;;0.50;0.15;;;28.30;46.70;;;;;;4995446;28;20050;-75
2022/07/03 12:27:42;;;;;;;0.60;0.20;;;27.70;47.20;;;;;;5011811;28;20068;-75
2022/07/03 12:30:12;;;;;;;2.00;0.30;;;27.00;47.90;;;;;;4991085;28;20121;-74
2022/07/03 12:32:40;;;;;;;1.00;0.30;;;27.10;48.20;;;;;;4997078;28;20056;-75
2022/07/03 12:35:07;;;;;;;0.43;0.30;;;27.80;47.70;;;;;;5001254;28;20128;-75
2022/07/03 12:37:45;;;;;;;0.80;0.28;;;28.10;47.00;;;;;;4991527;28;20046;-76
2022/07/03 12:40:14;;;;;;;0.70;0.20;;;28.10;46.60;;;;;;5016804;28;20088;-75
2022/07/03 12:42:45;;;;;;;0.65;0.32;;;28.50;46.00;;;;;;4992400;28;20046;-75
2022/07/03 12:45:14;;;;;;;0.20;0.10;;;28.80;45.50;;;;;;5001891;28;20160;-75
2022/07/03 12:47:44;;;;;;;1.40;0.30;;;29.00;45.90;;;;;;4996236;28;20050;-75
2022/07/03 12:50:11;;;;;;;0.25;0.10;;;29.30;44.20;;;;;;4998504;28;20117;-74
2022/07/03 12:52:55;;;;;;;0.45;0.17;;;29.40;43.90;;;;;;5016668;28;20066;-75
2022/07/03 12:55:27;;;;;;;0.80;0.20;;;29.40;43.80;;;;;;4994915;28;20046;-76
2022/07/03 13:01:29;;;;;;;1.35;0.20;;;29.70;43.20;;;;;;4999874;28;20096;-77
2022/07/03 13:03:56;;;;;;;0.90;0.30;;;29.80;42.90;;;;;;4995312;28;20112;-77
2022/07/03 13:06:24;;;;;;;0.57;0.20;;;30.10;43.00;;;;;;4995367;28;20076;-80
2022/07/03 13:08:58;;;;;;;1.02;0.20;;;30.60;42.90;;;;;;4995283;28;20100;-75
2022/07/03 13:11:32;;;;;;;1.55;0.40;;;31.00;42.10;;;;;;4996742;28;20522;-74
2022/07/03 13:14:07;;;;;;;0.30;0.10;;;30.90;41.90;;;;;;4996651;28;20058;-74
2022/07/03 13:16:52;;;;;;;1.23;0.20;;;30.00;43.00;;;;;;4996083;28;20042;-75
2022/07/03 13:19:27;;;;;;;1.25;0.20;;;29.40;42.80;;;;;;4991665;28;20096;-74